Time;durP1;ratioP1;P1;durP2;ratioP2;P2;SDS_P1;SDS_P2;PMS_P1;PMS_P2;Temp;Humidity;BMP_temperature;BMP_pressure;BME280_temperature;BME280_humidity;BME280_pressure;Samples;Min_cycle;Max_cycle;Signal;HPM_P1;HPM_P2
2023/07/26 00:00:13;;;;;;;0.80;0.40;;;13.00;99.90;;;;;;6370774;22;20045;-81
2023/07/26 00:02:39;;;;;;;0.70;0.30;;;13.00;99.90;;;;;;6370350;22;20021;-81
2023/07/26 00:05:04;;;;;;;0.95;0.30;;;13.00;99.90;;;;;;6370526;22;20022;-81
2023/07/26 00:07:30;;;;;;;1.38;0.30;;;13.00;99.90;;;;;;6370617;22;20329;-81
2023/07/26 00:09:56;;;;;;;0.98;0.40;;;13.00;99.90;;;;;;6370689;22;20023;-81
2023/07/26 00:12:22;;;;;;;0.80;0.38;;;13.00;99.90;;;;;;6342182;22;20050;-82
2023/07/26 00:14:47;;;;;;;3.42;0.30;;;13.00;99.90;;;;;;6342594;22;20018;-82
2023/07/26 00:17:13;;;;;;;1.17;0.38;;;13.00;99.90;;;;;;6342495;22;20337;-81
2023/07/26 00:19:39;;;;;;;1.15;0.60;;;13.00;99.90;;;;;;6370650;22;20053;-81
2023/07/26 00:22:05;;;;;;;1.33;0.40;;;13.00;99.90;;;;;;6370732;22;20063;-82
2023/07/26 00:24:31;;;;;;;0.60;0.30;;;13.00;99.90;;;;;;6370687;22;20022;-82
2023/07/26 00:26:56;;;;;;;0.85;0.45;;;13.00;99.90;;;;;;6370855;22;20006;-82
2023/07/26 00:29:22;;;;;;;0.57;0.30;;;13.00;99.90;;;;;;6370769;22;20063;-82
2023/07/26 00:31:47;;;;;;;0.50;0.30;;;13.00;99.90;;;;;;6370446;22;20065;-82
2023/07/26 00:34:13;;;;;;;0.52;0.30;;;13.10;99.90;;;;;;6341941;22;20082;-82
2023/07/26 00:36:39;;;;;;;1.65;0.40;;;13.00;99.90;;;;;;6369948;22;20014;-82
2023/07/26 00:39:04;;;;;;;1.95;0.30;;;13.00;99.90;;;;;;6316455;22;20089;-82
2023/07/26 00:41:30;;;;;;;0.57;0.30;;;13.10;99.90;;;;;;6370799;22;20010;-82
2023/07/26 00:43:56;;;;;;;1.88;0.43;;;13.10;99.90;;;;;;6370067;22;20037;-81
2023/07/26 00:46:22;;;;;;;0.63;0.30;;;13.10;99.90;;;;;;6369924;22;20030;-81
2023/07/26 00:48:48;;;;;;;0.60;0.50;;;13.40;99.90;;;;;;6342349;22;20340;-81
2023/07/26 00:51:14;;;;;;;1.05;0.20;;;13.10;99.90;;;;;;6365181;22;20022;-81
2023/07/26 00:53:40;;;;;;;1.27;0.30;;;13.10;99.90;;;;;;6370365;22;20078;-81
2023/07/26 00:56:06;;;;;;;2.10;0.40;;;13.10;99.90;;;;;;6369942;22;20392;-79
2023/07/26 00:58:32;;;;;;;0.35;0.20;;;13.10;99.90;;;;;;6370066;22;20015;-81
2023/07/26 01:00:59;;;;;;;0.73;0.30;;;13.10;99.90;;;;;;6370117;22;20075;-81
2023/07/26 01:03:25;;;;;;;0.30;0.30;;;13.30;99.90;;;;;;6370476;22;20063;-81
2023/07/26 01:06:09;;;;;;;0.63;0.38;;;13.10;99.90;;;;;;6369761;22;20448;-81
2023/07/26 01:08:49;;;;;;;1.25;0.30;;;13.10;99.90;;;;;;6368902;22;20348;-81
2023/07/26 01:11:27;;;;;;;0.60;0.30;;;13.20;99.90;;;;;;6370394;22;20014;-81
2023/07/26 01:13:59;;;;;;;1.48;0.40;;;13.10;99.90;;;;;;6368211;22;20029;-81
2023/07/26 01:16:25;;;;;;;0.88;0.38;;;13.10;99.90;;;;;;6370228;22;20332;-81
2023/07/26 01:18:51;;;;;;;0.60;0.32;;;13.10;99.90;;;;;;6369948;22;20033;-81
2023/07/26 01:21:17;;;;;;;0.50;0.40;;;13.00;99.90;;;;;;6368195;22;20014;-81
2023/07/26 01:23:42;;;;;;;1.17;0.40;;;13.00;99.90;;;;;;6369883;22;20093;-81
2023/07/26 01:26:08;;;;;;;0.60;0.40;;;13.00;99.90;;;;;;6368702;22;20025;-81
2023/07/26 01:28:34;;;;;;;1.17;0.50;;;13.00;99.90;;;;;;6370024;22;20369;-81
2023/07/26 01:31:03;;;;;;;0.43;0.30;;;13.00;99.90;;;;;;6370080;22;20022;-81
2023/07/26 01:33:31;;;;;;;0.95;0.40;;;13.00;99.90;;;;;;6368641;22;20018;-81
2023/07/26 01:35:59;;;;;;;0.93;0.45;;;13.00;99.90;;;;;;6367942;22;20046;-81
2023/07/26 01:38:25;;;;;;;0.80;0.45;;;13.00;99.90;;;;;;6369660;22;20010;-81
2023/07/26 01:40:52;;;;;;;0.47;0.30;;;13.00;99.90;;;;;;6369458;22;20064;-81
2023/07/26 01:43:18;;;;;;;2.70;0.38;;;13.10;99.90;;;;;;6368024;22;20097;-81
2023/07/26 01:45:44;;;;;;;1.30;0.40;;;13.00;99.90;;;;;;6368364;22;20102;-81
2023/07/26 01:48:09;;;;;;;1.58;0.38;;;13.00;99.90;;;;;;6369496;22;20018;-81
2023/07/26 01:50:35;;;;;;;0.82;0.40;;;12.90;99.90;;;;;;6369574;22;20395;-81
2023/07/26 01:53:01;;;;;;;0.50;0.40;;;13.10;99.90;;;;;;6370124;22;20014;-81
2023/07/26 01:55:26;;;;;;;1.77;0.40;;;12.90;99.90;;;;;;6369631;22;20340;-81
2023/07/26 01:57:52;;;;;;;0.70;0.40;;;12.90;99.90;;;;;;6341858;22;20010;-81
2023/07/26 02:00:18;;;;;;;0.63;0.40;;;12.80;99.90;;;;;;6369629;22;20467;-82
2023/07/26 02:02:43;;;;;;;1.27;0.50;;;12.80;99.90;;;;;;6369533;22;20018;-82
2023/07/26 02:05:09;;;;;;;0.90;0.40;;;12.80;99.90;;;;;;6341936;22;20109;-81
2023/07/26 02:07:35;;;;;;;2.05;0.47;;;12.80;99.90;;;;;;6369333;22;20079;-81
2023/07/26 02:10:01;;;;;;;0.50;0.38;;;12.70;99.90;;;;;;6341489;22;20014;-82
2023/07/26 02:12:27;;;;;;;0.68;0.60;;;12.80;99.90;;;;;;6341798;22;20015;-81
2023/07/26 02:14:52;;;;;;;2.65;0.40;;;12.70;99.90;;;;;;6369418;22;20015;-82
2023/07/26 02:17:18;;;;;;;1.00;0.50;;;12.70;99.90;;;;;;6315726;22;20026;-81
2023/07/26 02:19:44;;;;;;;1.85;0.50;;;12.70;99.90;;;;;;6341710;22;20011;-81
2023/07/26 02:22:09;;;;;;;0.52;0.40;;;12.60;99.90;;;;;;6369652;22;20018;-81
2023/07/26 02:24:35;;;;;;;1.58;0.50;;;12.60;99.90;;;;;;6369874;22;20022;-82
2023/07/26 02:27:01;;;;;;;2.85;0.50;;;12.60;99.90;;;;;;6369963;22;20356;-82
2023/07/26 02:29:27;;;;;;;0.90;0.50;;;12.50;99.90;;;;;;6369765;22;20037;-82
2023/07/26 02:31:52;;;;;;;0.93;0.50;;;12.50;99.90;;;;;;6369477;22;20465;-81
2023/07/26 02:34:18;;;;;;;1.90;0.50;;;12.50;99.90;;;;;;6369872;22;20115;-81
2023/07/26 02:36:44;;;;;;;3.67;0.50;;;12.50;99.90;;;;;;6369479;22;20389;-82
2023/07/26 02:39:10;;;;;;;1.38;0.52;;;12.40;99.90;;;;;;6369874;22;20010;-81
2023/07/26 02:41:35;;;;;;;1.98;0.75;;;12.40;99.90;;;;;;6369122;22;20022;-81
2023/07/26 02:44:01;;;;;;;1.75;0.55;;;12.40;99.90;;;;;;6369746;22;20018;-81
2023/07/26 02:46:27;;;;;;;0.80;0.40;;;12.40;99.90;;;;;;6341630;22;20006;-81
2023/07/26 02:48:52;;;;;;;0.93;0.57;;;12.40;99.90;;;;;;6369624;22;20026;-81
2023/07/26 02:51:21;;;;;;;2.25;0.50;;;12.30;99.90;;;;;;6369074;22;20067;-81
2023/07/26 02:53:47;;;;;;;2.20;0.50;;;12.30;99.90;;;;;;6369130;22;20015;-81
2023/07/26 02:56:12;;;;;;;0.80;0.50;;;12.30;99.90;;;;;;6369760;22;20374;-81
2023/07/26 02:58:38;;;;;;;1.63;0.40;;;12.20;99.90;;;;;;6341541;22;20093;-81
2023/07/26 03:01:04;;;;;;;2.08;0.50;;;12.20;99.90;;;;;;6369823;22;20332;-81
2023/07/26 03:03:29;;;;;;;0.73;0.40;;;12.20;99.90;;;;;;6369580;22;20011;-81
2023/07/26 03:05:58;;;;;;;4.25;0.60;;;12.20;99.90;;;;;;6342010;22;20071;-81
2023/07/26 03:08:24;;;;;;;1.10;0.60;;;11.70;99.90;;;;;;6371723;22;20345;-81
2023/07/26 03:10:53;;;;;;;1.35;0.60;;;12.30;99.90;;;;;;6371370;22;20094;-81
2023/07/26 03:13:19;;;;;;;1.08;0.60;;;12.10;99.90;;;;;;6370878;22;20094;-81
2023/07/26 03:15:45;;;;;;;1.77;0.60;;;12.10;99.90;;;;;;6370656;22;20050;-81
2023/07/26 03:18:11;;;;;;;2.33;0.60;;;12.10;99.90;;;;;;6371642;22;20025;-82
2023/07/26 03:20:36;;;;;;;2.67;0.40;;;12.10;99.90;;;;;;6343273;22;20341;-81
2023/07/26 03:23:02;;;;;;;1.40;0.60;;;12.10;99.90;;;;;;6371273;22;20014;-81
2023/07/26 03:25:28;;;;;;;1.00;0.45;;;12.10;99.90;;;;;;6370694;22;20026;-81
2023/07/26 03:27:55;;;;;;;1.42;0.60;;;12.10;99.90;;;;;;6343681;22;20038;-82
2023/07/26 03:30:20;;;;;;;2.95;0.70;;;12.10;99.90;;;;;;6371182;22;20014;-81
2023/07/26 03:32:46;;;;;;;2.17;0.60;;;12.10;99.90;;;;;;6371369;22;20010;-82
2023/07/26 03:35:12;;;;;;;1.67;0.45;;;12.10;99.90;;;;;;6371061;22;20013;-81
2023/07/26 03:37:37;;;;;;;1.33;0.43;;;12.10;99.90;;;;;;6342030;22;20042;-81
2023/07/26 03:40:04;;;;;;;0.93;0.50;;;12.10;99.90;;;;;;6371466;22;20018;-81
2023/07/26 03:42:30;;;;;;;0.82;0.40;;;12.20;99.90;;;;;;6370947;22;20014;-82
2023/07/26 03:44:56;;;;;;;0.50;0.40;;;12.20;99.90;;;;;;6371167;22;20021;-81
2023/07/26 03:47:22;;;;;;;1.17;0.50;;;12.50;99.90;;;;;;6370855;22;20085;-82
2023/07/26 03:49:47;;;;;;;0.93;0.50;;;12.20;99.90;;;;;;6343736;22;20052;-82
2023/07/26 03:52:13;;;;;;;0.85;0.40;;;12.20;99.90;;;;;;6371025;22;20085;-81
2023/07/26 03:54:39;;;;;;;1.05;0.50;;;12.20;99.90;;;;;;6370730;22;20010;-82
2023/07/26 03:57:07;;;;;;;2.20;0.80;;;12.20;99.90;;;;;;6342217;22;20021;-82
2023/07/26 03:59:32;;;;;;;1.65;0.52;;;12.20;99.90;;;;;;6342769;22;20021;-83
2023/07/26 04:01:58;;;;;;;1.52;0.50;;;12.30;99.90;;;;;;6370966;22;20014;-82
2023/07/26 04:04:24;;;;;;;1.02;0.50;;;12.30;99.90;;;;;;6342273;22;20029;-81
2023/07/26 04:06:49;;;;;;;0.75;0.50;;;12.30;99.90;;;;;;6342053;22;20015;-82
2023/07/26 04:09:15;;;;;;;2.28;0.50;;;12.30;99.90;;;;;;6370933;22;20341;-81
2023/07/26 04:11:40;;;;;;;1.45;0.55;;;12.30;99.90;;;;;;6342930;22;20345;-82
2023/07/26 04:14:06;;;;;;;1.33;0.73;;;12.30;99.90;;;;;;6370503;22;20025;-82
2023/07/26 04:16:32;;;;;;;2.13;0.63;;;12.30;99.90;;;;;;6342888;22;20024;-82
2023/07/26 04:18:58;;;;;;;1.55;0.80;;;12.30;99.90;;;;;;6369745;22;20014;-81
2023/07/26 04:21:23;;;;;;;1.27;0.50;;;12.30;99.90;;;;;;6343105;22;20022;-82
2023/07/26 04:23:49;;;;;;;2.05;0.52;;;12.30;99.90;;;;;;6342377;22;20538;-82
2023/07/26 04:26:15;;;;;;;0.90;0.57;;;12.70;99.90;;;;;;6370923;22;20015;-82
2023/07/26 04:28:41;;;;;;;1.45;0.60;;;12.30;99.90;;;;;;6370218;22;20038;-82
2023/07/26 04:31:06;;;;;;;1.30;0.60;;;12.30;99.90;;;;;;6370316;22;20023;-82
2023/07/26 04:33:32;;;;;;;1.98;0.75;;;12.30;99.90;;;;;;6370824;22;20048;-82
2023/07/26 04:35:58;;;;;;;0.80;0.55;;;12.30;99.90;;;;;;6342713;22;20057;-82
2023/07/26 04:38:25;;;;;;;1.50;0.75;;;12.30;99.90;;;;;;6342750;22;20063;-82
2023/07/26 04:40:51;;;;;;;1.65;0.60;;;12.20;99.90;;;;;;6369284;22;20026;-83
2023/07/26 04:43:22;;;;;;;1.90;0.63;;;12.20;99.90;;;;;;6371088;22;20012;-82
2023/07/26 04:45:52;;;;;;;1.38;0.55;;;12.20;99.90;;;;;;6342617;22;20018;-82
2023/07/26 04:48:19;;;;;;;2.90;0.70;;;12.30;99.90;;;;;;6370527;22;20370;-82
2023/07/26 04:50:47;;;;;;;3.33;0.52;;;12.20;99.90;;;;;;6370031;22;20081;-83
2023/07/26 04:53:12;;;;;;;1.05;0.63;;;12.20;99.90;;;;;;6342076;22;20085;-82
2023/07/26 04:55:46;;;;;;;2.28;0.68;;;12.20;99.90;;;;;;6370653;22;20038;-83
2023/07/26 04:58:12;;;;;;;1.63;0.60;;;12.30;99.90;;;;;;6342717;22;20048;-83
2023/07/26 05:00:41;;;;;;;3.22;0.70;;;12.30;99.90;;;;;;6370258;22;20014;-82
2023/07/26 05:03:08;;;;;;;4.90;0.70;;;12.20;99.90;;;;;;6370604;22;20019;-83
2023/07/26 05:05:35;;;;;;;1.35;0.70;;;12.30;99.90;;;;;;6342449;22;20026;-82
2023/07/26 05:08:01;;;;;;;1.35;0.70;;;12.30;99.90;;;;;;6342160;22;20440;-82
2023/07/26 05:10:27;;;;;;;2.20;0.77;;;12.30;99.90;;;;;;6370194;22;20018;-83
2023/07/26 05:12:54;;;;;;;1.25;0.60;;;12.30;99.90;;;;;;6342712;22;20010;-82
2023/07/26 05:15:20;;;;;;;2.78;0.70;;;12.30;99.90;;;;;;6315891;22;20392;-82
2023/07/26 05:17:46;;;;;;;3.08;0.85;;;12.30;99.90;;;;;;6369897;22;20014;-82
2023/07/26 05:20:12;;;;;;;1.65;0.68;;;12.50;99.90;;;;;;6342082;22;20018;-82
2023/07/26 05:22:38;;;;;;;2.15;0.60;;;12.30;99.90;;;;;;6369682;22;20057;-82
2023/07/26 05:25:05;;;;;;;1.30;0.60;;;12.60;99.90;;;;;;6341780;22;20021;-82
2023/07/26 05:27:31;;;;;;;1.85;0.60;;;12.60;99.90;;;;;;6342116;22;20384;-82
2023/07/26 05:29:59;;;;;;;1.02;0.50;;;12.80;99.90;;;;;;6369850;22;20025;-82
2023/07/26 05:32:26;;;;;;;0.98;0.45;;;13.00;99.90;;;;;;6342508;22;20014;-82
2023/07/26 05:34:56;;;;;;;1.10;0.43;;;13.20;99.90;;;;;;6370169;22;20023;-82
2023/07/26 05:37:22;;;;;;;0.70;0.40;;;13.40;99.90;;;;;;6368958;22;20008;-82
2023/07/26 05:39:49;;;;;;;1.60;0.70;;;13.40;99.90;;;;;;6342154;22;20018;-82
2023/07/26 05:42:14;;;;;;;1.77;0.60;;;13.50;99.90;;;;;;6370232;22;20112;-82
2023/07/26 05:48:21;;;;;;;0.93;0.63;;;13.70;99.90;;;;;;6369526;22;20017;-82
2023/07/26 05:50:48;;;;;;;3.38;0.40;;;13.70;99.90;;;;;;6369301;22;20333;-82
2023/07/26 05:53:14;;;;;;;0.77;0.40;;;13.70;99.90;;;;;;6369483;22;20022;-82
2023/07/26 05:55:40;;;;;;;3.10;0.60;;;13.80;99.90;;;;;;6342471;22;20014;-82
2023/07/26 05:58:05;;;;;;;1.00;0.50;;;13.70;99.90;;;;;;6341447;22;20014;-82
2023/07/26 06:00:31;;;;;;;0.98;0.63;;;13.70;99.90;;;;;;6342434;22;20093;-82
2023/07/26 06:02:57;;;;;;;1.17;0.50;;;13.60;99.90;;;;;;6369933;22;20121;-82
2023/07/26 06:05:24;;;;;;;1.00;0.60;;;13.70;99.90;;;;;;6369462;22;20022;-82
2023/07/26 06:07:50;;;;;;;1.40;0.60;;;13.60;99.90;;;;;;6341669;22;20060;-82
2023/07/26 06:10:16;;;;;;;1.05;0.50;;;13.60;99.90;;;;;;6370120;22;20019;-82
2023/07/26 06:12:42;;;;;;;1.65;0.50;;;13.50;99.90;;;;;;6370146;22;20017;-82
2023/07/26 06:15:08;;;;;;;0.90;0.50;;;13.50;99.90;;;;;;6369907;22;20077;-83
2023/07/26 06:17:34;;;;;;;1.15;0.60;;;13.50;99.90;;;;;;6370089;22;20011;-83
2023/07/26 06:19:59;;;;;;;0.65;0.45;;;13.50;99.90;;;;;;6369826;22;20086;-83
2023/07/26 06:22:26;;;;;;;1.10;0.50;;;13.50;99.90;;;;;;6341893;22;20440;-84
2023/07/26 06:24:51;;;;;;;1.20;0.63;;;13.50;99.90;;;;;;6369868;22;20094;-83
2023/07/26 06:27:22;;;;;;;0.98;0.70;;;13.60;99.90;;;;;;6341519;22;20399;-84
2023/07/26 06:29:47;;;;;;;0.98;0.50;;;13.40;99.90;;;;;;6369936;22;20018;-86
2023/07/26 06:32:13;;;;;;;1.52;0.55;;;13.50;99.90;;;;;;6370149;22;20006;-86
2023/07/26 06:34:39;;;;;;;1.38;0.40;;;13.50;99.90;;;;;;6342643;22;20047;-82
2023/07/26 06:37:05;;;;;;;1.13;0.50;;;13.50;99.90;;;;;;6369404;22;20476;-83
2023/07/26 06:39:30;;;;;;;2.20;0.47;;;13.60;99.90;;;;;;6341513;22;20086;-82
2023/07/26 06:41:56;;;;;;;0.88;0.50;;;13.60;99.90;;;;;;6343126;22;20074;-82
2023/07/26 06:48:03;;;;;;;1.45;0.60;;;13.60;99.90;;;;;;6371333;22;20020;-82
2023/07/26 06:50:28;;;;;;;1.35;0.40;;;13.90;99.90;;;;;;6343445;22;20053;-86
2023/07/26 06:52:54;;;;;;;1.38;0.50;;;14.00;99.90;;;;;;6365527;22;20101;-84
2023/07/26 06:55:20;;;;;;;0.90;0.43;;;14.20;99.90;;;;;;6370262;22;20014;-85
2023/07/26 06:57:45;;;;;;;0.60;0.40;;;14.20;99.90;;;;;;6372052;22;20049;-84
2023/07/26 07:00:14;;;;;;;1.15;0.50;;;14.40;99.90;;;;;;6370397;22;20017;-84
2023/07/26 07:02:40;;;;;;;0.63;0.50;;;14.50;99.90;;;;;;6371962;22;20018;-83
2023/07/26 07:05:07;;;;;;;2.20;0.63;;;14.50;99.90;;;;;;6371455;22;20072;-82
2023/07/26 07:07:32;;;;;;;0.70;0.50;;;14.50;99.90;;;;;;6370077;22;20014;-83
2023/07/26 07:09:58;;;;;;;1.55;0.40;;;14.60;99.90;;;;;;6343735;22;20094;-84
2023/07/26 07:12:24;;;;;;;1.27;0.40;;;14.60;99.90;;;;;;6370208;22;20029;-83
2023/07/26 07:14:49;;;;;;;1.42;0.43;;;14.80;99.90;;;;;;6369845;22;20014;-83
2023/07/26 07:17:15;;;;;;;1.13;0.60;;;14.90;99.90;;;;;;6372548;22;20075;-83
2023/07/26 07:19:41;;;;;;;0.93;0.45;;;15.10;99.90;;;;;;6370229;22;20038;-83
2023/07/26 07:22:07;;;;;;;1.17;0.43;;;15.30;99.90;;;;;;6372343;22;20006;-83
2023/07/26 07:24:36;;;;;;;1.80;0.45;;;15.40;99.90;;;;;;6371925;22;20019;-83
2023/07/26 07:27:02;;;;;;;2.42;0.80;;;15.60;99.90;;;;;;6372275;22;20025;-82
2023/07/26 07:29:28;;;;;;;1.35;0.50;;;15.70;99.90;;;;;;6371927;22;20018;-84
2023/07/26 07:31:53;;;;;;;2.70;0.50;;;15.90;99.90;;;;;;6371965;22;20049;-83
2023/07/26 07:34:19;;;;;;;2.13;0.52;;;16.00;99.90;;;;;;6370944;22;20018;-84
2023/07/26 07:36:45;;;;;;;1.52;0.55;;;16.00;99.90;;;;;;6372139;22;20083;-84
2023/07/26 07:39:12;;;;;;;1.30;0.50;;;16.10;99.90;;;;;;6372302;22;20048;-83
2023/07/26 07:41:38;;;;;;;1.40;0.57;;;16.20;99.90;;;;;;6372459;22;20038;-81
2023/07/26 07:44:04;;;;;;;3.10;0.68;;;16.30;99.90;;;;;;6372465;22;20018;-82
2023/07/26 07:46:30;;;;;;;1.52;0.55;;;16.50;99.90;;;;;;6371149;22;20018;-83
2023/07/26 07:48:56;;;;;;;1.00;0.47;;;16.60;99.90;;;;;;6372991;22;20022;-83
2023/07/26 07:51:22;;;;;;;0.95;0.40;;;16.80;99.90;;;;;;6372854;22;20019;-83
2023/07/26 07:53:48;;;;;;;1.10;0.50;;;16.90;99.90;;;;;;6374945;22;20080;-83
2023/07/26 07:56:14;;;;;;;0.93;0.50;;;16.80;99.90;;;;;;6354490;22;20062;-83
2023/07/26 07:58:40;;;;;;;1.23;0.45;;;16.90;99.90;;;;;;6356544;22;20018;-83
2023/07/26 08:01:05;;;;;;;0.60;0.40;;;16.90;99.90;;;;;;6387445;22;20056;-83
2023/07/26 08:03:31;;;;;;;0.57;0.30;;;17.10;99.90;;;;;;6385983;22;20022;-82
2023/07/26 08:05:57;;;;;;;0.80;0.40;;;17.20;99.90;;;;;;6383953;22;20018;-82
2023/07/26 08:08:23;;;;;;;1.23;0.43;;;17.40;99.90;;;;;;6357061;22;20041;-82
2023/07/26 08:10:49;;;;;;;0.57;0.30;;;17.60;99.90;;;;;;6383319;22;20014;-83
2023/07/26 08:13:15;;;;;;;1.50;0.60;;;17.70;99.90;;;;;;6393844;22;20011;-82
2023/07/26 08:15:41;;;;;;;0.70;0.30;;;17.80;99.90;;;;;;6390960;22;20074;-83
2023/07/26 08:18:07;;;;;;;1.17;0.50;;;17.90;99.90;;;;;;6386621;22;20025;-82
2023/07/26 08:20:34;;;;;;;0.73;0.38;;;17.80;99.90;;;;;;6386932;22;20014;-83
2023/07/26 08:23:01;;;;;;;0.68;0.40;;;17.90;99.90;;;;;;6390657;22;20040;-81
2023/07/26 08:25:26;;;;;;;0.40;0.30;;;18.00;99.90;;;;;;6363626;22;20018;-81
2023/07/26 08:27:52;;;;;;;0.98;0.40;;;18.00;99.90;;;;;;6381807;22;20033;-81
2023/07/26 08:30:18;;;;;;;1.25;0.30;;;18.00;99.90;;;;;;6382519;22;20018;-81
2023/07/26 08:32:43;;;;;;;1.38;0.22;;;18.20;99.90;;;;;;6348976;22;20036;-80
2023/07/26 08:35:09;;;;;;;0.20;0.10;;;18.40;99.90;;;;;;6373678;22;20014;-80
2023/07/26 08:37:35;;;;;;;0.88;0.30;;;18.40;99.90;;;;;;6383926;22;20093;-81
2023/07/26 08:40:01;;;;;;;2.05;0.45;;;18.80;99.90;;;;;;6379487;22;20067;-81
2023/07/26 08:42:26;;;;;;;1.27;0.35;;;18.90;99.90;;;;;;6380727;22;20010;-80
2023/07/26 08:44:53;;;;;;;0.70;0.40;;;19.10;99.90;;;;;;6378888;22;20022;-81
2023/07/26 08:47:22;;;;;;;1.77;0.52;;;19.20;99.90;;;;;;6354106;22;20015;-81
2023/07/26 08:49:48;;;;;;;0.65;0.38;;;19.40;99.90;;;;;;6380587;22;20018;-82
2023/07/26 08:52:17;;;;;;;1.15;0.40;;;19.60;99.90;;;;;;6385146;22;20015;-80
2023/07/26 08:54:45;;;;;;;1.10;0.50;;;19.80;99.90;;;;;;6394505;22;20015;-81
2023/07/26 08:57:12;;;;;;;0.68;0.40;;;20.10;99.90;;;;;;6367971;22;20038;-82
2023/07/26 08:59:37;;;;;;;0.82;0.50;;;20.20;99.90;;;;;;6394407;22;20051;-83
2023/07/26 09:02:04;;;;;;;4.75;0.45;;;20.20;99.90;;;;;;6339424;22;20010;-83
2023/07/26 09:04:33;;;;;;;0.52;0.30;;;20.10;99.90;;;;;;6388545;22;20032;-81
2023/07/26 09:07:03;;;;;;;1.48;0.40;;;20.20;99.90;;;;;;6356908;22;20022;-83
2023/07/26 09:09:34;;;;;;;1.05;0.35;;;20.20;99.90;;;;;;6346847;22;20018;-80
2023/07/26 09:12:01;;;;;;;0.70;0.40;;;20.30;99.90;;;;;;6375533;22;20006;-81
2023/07/26 09:14:31;;;;;;;1.42;0.40;;;20.30;99.90;;;;;;6376744;22;20014;-81
2023/07/26 09:16:58;;;;;;;0.90;0.43;;;20.30;99.90;;;;;;6376851;22;20084;-81
2023/07/26 09:19:32;;;;;;;2.40;0.50;;;20.20;99.90;;;;;;6373610;22;20589;-80
2023/07/26 09:22:02;;;;;;;1.02;0.40;;;20.10;99.90;;;;;;6343794;22;20065;-80
2023/07/26 09:24:33;;;;;;;0.60;0.38;;;20.10;99.90;;;;;;6343045;22;20030;-81
2023/07/26 09:27:04;;;;;;;1.05;0.45;;;20.30;99.90;;;;;;6371978;22;20022;-84
2023/07/26 09:29:29;;;;;;;0.57;0.40;;;20.30;99.90;;;;;;6344992;22;20014;-84
2023/07/26 09:31:55;;;;;;;1.23;0.50;;;20.20;99.90;;;;;;6371484;22;20010;-84
2023/07/26 09:34:22;;;;;;;0.63;0.30;;;20.40;99.90;;;;;;6370848;22;20049;-84
2023/07/26 09:36:50;;;;;;;1.00;0.40;;;20.60;99.90;;;;;;6370488;22;20029;-83
2023/07/26 09:39:20;;;;;;;1.30;0.55;;;20.80;99.90;;;;;;6370077;22;20054;-84
2023/07/26 09:41:46;;;;;;;1.75;0.60;;;20.90;99.90;;;;;;6342391;22;20021;-84
2023/07/26 09:44:20;;;;;;;1.55;0.57;;;20.90;99.90;;;;;;6370937;22;20050;-84
2023/07/26 09:46:50;;;;;;;1.30;0.60;;;20.70;99.90;;;;;;6342911;22;20050;-83
2023/07/26 09:49:16;;;;;;;1.27;0.63;;;20.60;99.90;;;;;;6371189;22;20015;-84
2023/07/26 09:51:42;;;;;;;1.73;0.40;;;20.50;99.90;;;;;;6319139;22;20015;-84
2023/07/26 09:54:12;;;;;;;2.60;0.52;;;20.50;99.90;;;;;;6370245;22;20029;-84
2023/07/26 09:56:40;;;;;;;1.63;0.40;;;20.70;99.90;;;;;;6370501;22;20310;-84
2023/07/26 09:59:11;;;;;;;1.75;0.60;;;21.00;99.90;;;;;;6368436;22;20057;-84
2023/07/26 10:01:47;;;;;;;1.17;0.35;;;21.30;99.90;;;;;;6368217;22;20014;-84
2023/07/26 10:04:30;;;;;;;1.05;0.50;;;21.30;99.90;;;;;;6369966;22;20022;-84
2023/07/26 10:07:00;;;;;;;1.40;0.50;;;21.20;99.90;;;;;;6369720;22;20014;-83
2023/07/26 10:09:27;;;;;;;0.60;0.38;;;21.00;99.90;;;;;;6370195;22;20037;-83
2023/07/26 10:11:55;;;;;;;1.80;0.50;;;21.20;99.90;;;;;;6368161;22;20467;-84
2023/07/26 10:14:22;;;;;;;1.90;0.40;;;21.30;99.90;;;;;;6369719;22;20019;-84
2023/07/26 10:16:51;;;;;;;3.78;0.70;;;21.50;99.90;;;;;;6371905;22;20054;-84
2023/07/26 10:19:18;;;;;;;2.88;0.43;;;21.30;99.90;;;;;;6372406;22;20529;-84
2023/07/26 10:21:47;;;;;;;0.95;0.50;;;21.30;99.90;;;;;;6372446;22;20399;-83
2023/07/26 10:24:15;;;;;;;0.80;0.30;;;21.00;99.90;;;;;;6372237;22;20014;-83
2023/07/26 10:26:42;;;;;;;1.77;0.40;;;20.70;99.90;;;;;;6372675;22;20014;-84
2023/07/26 10:29:08;;;;;;;2.33;0.70;;;20.20;99.90;;;;;;6371022;22;20010;-85
2023/07/26 10:31:34;;;;;;;1.80;0.70;;;20.00;99.90;;;;;;6370652;22;20018;-84
2023/07/26 10:34:00;;;;;;;1.65;0.60;;;19.50;99.90;;;;;;6373043;22;20046;-84
2023/07/26 10:36:30;;;;;;;1.00;0.40;;;19.20;99.90;;;;;;6372075;22;20040;-84
2023/07/26 10:39:01;;;;;;;1.00;0.52;;;19.00;99.90;;;;;;6371144;22;20097;-84
2023/07/26 10:41:29;;;;;;;1.05;0.50;;;18.90;99.90;;;;;;6373067;22;20367;-84
2023/07/26 10:44:06;;;;;;;1.35;0.50;;;18.80;99.90;;;;;;6370381;22;20017;-85
2023/07/26 10:47:01;;;;;;;1.48;0.60;;;18.90;99.90;;;;;;6370280;22;20026;-84
2023/07/26 10:49:28;;;;;;;1.92;0.70;;;18.80;99.90;;;;;;6370368;22;20014;-85
2023/07/26 10:52:00;;;;;;;1.35;0.65;;;18.80;99.90;;;;;;6370273;22;20120;-84
2023/07/26 10:54:35;;;;;;;2.13;1.08;;;18.80;99.90;;;;;;6372370;22;20037;-84
2023/07/26 10:57:26;;;;;;;2.38;0.50;;;18.60;99.90;;;;;;6372226;22;20105;-84
2023/07/26 11:00:06;;;;;;;0.80;0.20;;;18.20;99.90;;;;;;6369909;22;20440;-83
2023/07/26 11:02:48;;;;;;;3.03;1.27;;;17.80;99.90;;;;;;6371838;22;20015;-83
2023/07/26 11:05:22;;;;;;;1.42;0.30;;;17.60;99.90;;;;;;6343837;22;20022;-84
2023/07/26 11:07:48;;;;;;;0.75;0.30;;;17.40;99.90;;;;;;6369959;22;20018;-84
2023/07/26 11:10:37;;;;;;;3.08;0.50;;;17.60;99.90;;;;;;6369932;22;20015;-84
2023/07/26 11:13:06;;;;;;;0.90;0.30;;;17.40;99.90;;;;;;6370121;22;20025;-84
2023/07/26 11:15:32;;;;;;;1.20;0.52;;;17.40;99.90;;;;;;6369847;22;20465;-84
2023/07/26 11:17:58;;;;;;;2.15;0.50;;;17.30;99.90;;;;;;6343525;22;20110;-84
2023/07/26 11:20:24;;;;;;;0.90;0.30;;;17.30;99.90;;;;;;6370313;22;20022;-84
2023/07/26 11:22:50;;;;;;;0.98;0.50;;;17.50;99.90;;;;;;6370147;22;20371;-84
2023/07/26 11:25:17;;;;;;;0.63;0.43;;;17.40;99.90;;;;;;6369499;22;20019;-84
2023/07/26 11:27:44;;;;;;;0.95;0.40;;;17.60;99.90;;;;;;6371578;22;20018;-84
2023/07/26 11:30:17;;;;;;;1.05;0.50;;;17.90;99.90;;;;;;6371943;22;20015;-84
2023/07/26 11:32:48;;;;;;;0.90;0.40;;;18.20;99.90;;;;;;6369908;22;20014;-84
2023/07/26 11:35:20;;;;;;;0.40;0.20;;;18.30;99.90;;;;;;6343500;22;20432;-84
2023/07/26 11:37:52;;;;;;;0.80;0.35;;;18.40;99.90;;;;;;6369676;22;20010;-85
2023/07/26 11:40:18;;;;;;;1.65;0.35;;;18.40;99.90;;;;;;6369796;22;20018;-84
2023/07/26 11:42:43;;;;;;;0.47;0.20;;;18.50;99.90;;;;;;6343979;22;20429;-84
2023/07/26 11:45:10;;;;;;;0.60;0.40;;;18.70;99.90;;;;;;6369513;22;20026;-85
2023/07/26 11:47:36;;;;;;;0.50;0.30;;;19.10;99.90;;;;;;6369925;22;20385;-85
2023/07/26 11:50:03;;;;;;;0.70;0.22;;;19.20;99.90;;;;;;6369486;22;20018;-85
2023/07/26 11:52:29;;;;;;;0.30;0.30;;;19.50;99.90;;;;;;6369722;22;20443;-85
2023/07/26 11:54:57;;;;;;;0.88;0.17;;;19.60;99.90;;;;;;6371241;22;20433;-84
2023/07/26 11:57:28;;;;;;;1.20;0.30;;;19.70;99.90;;;;;;6369679;22;20014;-84
2023/07/26 12:00:01;;;;;;;0.65;0.35;;;19.80;99.90;;;;;;6369886;22;20014;-85
2023/07/26 12:02:27;;;;;;;1.25;0.30;;;19.80;99.90;;;;;;6371492;22;20015;-85
2023/07/26 12:05:18;;;;;;;0.82;0.30;;;20.00;99.90;;;;;;6343348;22;20093;-85
2023/07/26 12:07:50;;;;;;;0.73;0.30;;;20.10;99.90;;;;;;6371155;22;20011;-84
2023/07/26 12:10:17;;;;;;;0.57;0.22;;;20.60;99.90;;;;;;6371462;22;20038;-84
2023/07/26 12:12:43;;;;;;;1.13;0.35;;;20.70;99.90;;;;;;6369921;22;20017;-85
2023/07/26 12:15:12;;;;;;;0.32;0.20;;;20.70;99.90;;;;;;6342851;22;20045;-84
2023/07/26 12:18:05;;;;;;;0.40;0.30;;;20.80;99.90;;;;;;6343233;22;20018;-83
2023/07/26 12:20:31;;;;;;;1.83;0.40;;;20.60;99.90;;;;;;6367456;22;20017;-84
2023/07/26 12:23:00;;;;;;;0.63;0.20;;;20.50;99.90;;;;;;6342839;22;20050;-84
2023/07/26 12:25:37;;;;;;;0.47;0.30;;;20.50;99.90;;;;;;6370973;22;20090;-83
2023/07/26 12:28:08;;;;;;;0.95;0.40;;;20.40;99.90;;;;;;6370673;22;20021;-83
2023/07/26 12:30:34;;;;;;;0.65;0.35;;;20.30;99.90;;;;;;6370482;22;20086;-84
2023/07/26 12:33:21;;;;;;;3.03;0.50;;;20.30;99.90;;;;;;6368926;22;20014;-84
2023/07/26 12:35:47;;;;;;;1.50;0.40;;;20.60;99.90;;;;;;6342268;22;20014;-84
2023/07/26 12:38:18;;;;;;;1.10;0.38;;;20.80;99.90;;;;;;6368981;22;20075;-84
2023/07/26 12:40:45;;;;;;;1.05;0.32;;;21.30;99.90;;;;;;6368597;22;20102;-84
2023/07/26 12:43:28;;;;;;;1.13;0.28;;;21.30;99.90;;;;;;6370822;22;20017;-84
2023/07/26 12:45:56;;;;;;;1.13;0.22;;;21.40;99.90;;;;;;6370242;22;20026;-84
2023/07/26 12:48:23;;;;;;;2.15;0.50;;;21.20;99.90;;;;;;6368777;22;20337;-84
2023/07/26 12:50:51;;;;;;;0.32;0.20;;;21.20;99.90;;;;;;6370210;22;20432;-83
2023/07/26 12:53:19;;;;;;;1.65;0.43;;;21.00;99.90;;;;;;6370190;22;20075;-84
2023/07/26 12:55:45;;;;;;;1.23;0.60;;;20.80;99.90;;;;;;6342304;22;20057;-84